Time;durP1;ratioP1;P1;durP2;ratioP2;P2;SDS_P1;SDS_P2;PMS_P1;PMS_P2;Temp;Humidity;BMP_temperature;BMP_pressure;BME280_temperature;BME280_humidity;BME280_pressure;Samples;Min_cycle;Max_cycle;Signal;HPM_P1;HPM_P2
2023/01/01 00:00:47;;;;;;;24.13;8.45;;;13.60;99.90;;;;;;5053534;28;20094;-56
2023/01/01 00:03:13;;;;;;;17.23;8.32;;;13.60;99.90;;;;;;5055472;28;20071;-56
2023/01/01 00:05:39;;;;;;;18.05;7.80;;;13.40;99.90;;;;;;5053573;28;20037;-56
2023/01/01 00:08:05;;;;;;;17.80;9.40;;;13.50;99.90;;;;;;5054773;28;20044;-56
2023/01/01 00:10:32;;;;;;;22.38;10.48;;;13.40;99.90;;;;;;5054522;28;20045;-57
2023/01/01 00:12:59;;;;;;;26.38;11.35;;;13.50;99.90;;;;;;5054280;28;20304;-55
2023/01/01 00:15:26;;;;;;;22.63;11.93;;;13.30;99.90;;;;;;5053961;28;20045;-56
2023/01/01 00:17:52;;;;;;;20.20;12.93;;;13.50;99.90;;;;;;5053191;28;20036;-56
2023/01/01 00:20:18;;;;;;;23.88;13.73;;;13.60;99.90;;;;;;5053762;28;20090;-55
2023/01/01 00:22:44;;;;;;;19.50;11.15;;;13.40;99.90;;;;;;5051340;28;20072;-56
2023/01/01 00:25:13;;;;;;;24.52;11.20;;;13.40;99.90;;;;;;5052658;28;20135;-55
2023/01/01 00:27:39;;;;;;;22.52;10.02;;;13.60;99.90;;;;;;5052670;28;20040;-56
2023/01/01 00:30:06;;;;;;;20.67;10.15;;;13.60;99.90;;;;;;5053394;28;20052;-56
2023/01/01 00:32:31;;;;;;;21.33;10.35;;;13.50;99.90;;;;;;5052279;28;20161;-56
2023/01/01 00:34:57;;;;;;;18.83;10.63;;;13.50;99.90;;;;;;5052575;28;20655;-56
2023/01/01 00:37:23;;;;;;;21.45;9.38;;;13.50;99.90;;;;;;5051351;28;20044;-56
2023/01/01 00:39:48;;;;;;;21.75;9.98;;;13.30;99.90;;;;;;5053096;28;20036;-56
2023/01/01 00:42:14;;;;;;;22.77;11.18;;;13.40;99.90;;;;;;5052697;28;20036;-55
2023/01/01 00:44:40;;;;;;;23.23;11.45;;;13.40;99.90;;;;;;5052130;28;20075;-55
2023/01/01 00:47:06;;;;;;;24.15;12.35;;;13.40;99.90;;;;;;5052474;28;20036;-56
2023/01/01 00:49:31;;;;;;;27.25;14.95;;;13.50;99.90;;;;;;5053474;28;20047;-55
2023/01/01 00:51:57;;;;;;;28.63;15.70;;;11.70;99.90;;;;;;5053538;28;20133;-56
2023/01/01 00:54:23;;;;;;;28.35;16.65;;;13.30;99.90;;;;;;5051976;28;20076;-56
2023/01/01 00:56:48;;;;;;;34.05;19.40;;;13.40;99.90;;;;;;5052506;28;20131;-55
2023/01/01 00:59:14;;;;;;;31.52;21.40;;;13.50;99.90;;;;;;5052697;28;20043;-54
2023/01/01 01:01:40;;;;;;;34.53;23.33;;;13.10;99.90;;;;;;5051601;28;20040;-56
2023/01/01 01:04:07;;;;;;;32.97;22.35;;;11.80;99.90;;;;;;5053702;28;20046;-56
2023/01/01 01:06:33;;;;;;;40.88;24.88;;;13.10;99.90;;;;;;5053726;28;20049;-56
2023/01/01 01:08:59;;;;;;;36.53;22.67;;;13.10;99.90;;;;;;5054604;28;20574;-56
2023/01/01 01:11:25;;;;;;;32.28;21.92;;;13.10;99.90;;;;;;5053441;28;20768;-56
2023/01/01 01:13:53;;;;;;;40.53;24.80;;;13.00;99.90;;;;;;5053484;28;20431;-55
2023/01/01 01:16:23;;;;;;;39.22;23.42;;;12.90;99.90;;;;;;5053318;28;20095;-56
2023/01/01 01:18:50;;;;;;;40.33;27.17;;;13.00;99.90;;;;;;5053762;28;20429;-56
2023/01/01 01:21:18;;;;;;;39.72;25.38;;;12.80;99.90;;;;;;5053718;28;20052;-55
2023/01/01 01:23:44;;;;;;;42.03;27.38;;;12.70;99.90;;;;;;5054123;28;20047;-54
2023/01/01 01:26:12;;;;;;;38.65;27.42;;;12.80;99.90;;;;;;5051681;28;20045;-55
2023/01/01 01:28:38;;;;;;;37.28;26.67;;;12.80;99.90;;;;;;5052611;28;20219;-54
2023/01/01 01:31:04;;;;;;;39.88;27.77;;;12.60;99.90;;;;;;5051354;28;20063;-55
2023/01/01 01:33:30;;;;;;;42.25;29.88;;;12.60;99.90;;;;;;5052210;28;20615;-56
2023/01/01 01:35:56;;;;;;;40.75;30.33;;;12.40;99.90;;;;;;5052523;28;20132;-55
2023/01/01 01:38:22;;;;;;;44.60;29.60;;;12.40;99.90;;;;;;5051995;28;20044;-55
2023/01/01 01:40:48;;;;;;;48.03;33.55;;;12.20;99.90;;;;;;5051696;28;20139;-55
2023/01/01 01:43:31;;;;;;;49.60;33.22;;;12.40;99.90;;;;;;5067461;28;20481;-55
2023/01/01 01:46:09;;;;;;;52.53;35.80;;;12.30;99.90;;;;;;5051402;28;20501;-55
2023/01/01 01:48:44;;;;;;;50.85;35.65;;;12.30;99.90;;;;;;5051887;28;20052;-55
2023/01/01 01:51:13;;;;;;;47.70;32.20;;;12.20;99.90;;;;;;5052425;28;20382;-53
2023/01/01 01:53:44;;;;;;;43.83;31.90;;;12.10;99.90;;;;;;5051421;28;20118;-56
2023/01/01 01:56:15;;;;;;;43.38;33.92;;;12.10;99.90;;;;;;5051410;28;20049;-55
2023/01/01 01:58:41;;;;;;;55.00;35.42;;;12.30;99.90;;;;;;5052725;28;20136;-56
2023/01/01 02:01:06;;;;;;;47.88;32.67;;;11.90;99.90;;;;;;5055599;28;20041;-55
2023/01/01 02:03:54;;;;;;;52.03;32.72;;;12.20;99.90;;;;;;5054529;28;20052;-55
2023/01/01 02:06:20;;;;;;;48.42;35.92;;;12.00;99.90;;;;;;5055976;28;20108;-55
2023/01/01 02:08:48;;;;;;;50.33;36.65;;;11.90;99.90;;;;;;5055956;28;20583;-56
2023/01/01 02:11:14;;;;;;;47.50;35.97;;;11.90;99.90;;;;;;5055002;28;20063;-55
2023/01/01 02:13:40;;;;;;;48.03;34.38;;;12.10;99.90;;;;;;5055153;28;20144;-56
2023/01/01 02:16:18;;;;;;;50.60;35.67;;;11.90;99.90;;;;;;5087272;28;20125;-56
2023/01/01 02:19:04;;;;;;;57.35;38.78;;;12.00;99.90;;;;;;5054502;28;20047;-56
2023/01/01 02:21:36;;;;;;;51.28;36.50;;;12.10;99.90;;;;;;5055696;28;20052;-55
2023/01/01 02:24:20;;;;;;;47.05;35.13;;;12.00;99.90;;;;;;5055484;28;20127;-56
2023/01/01 02:27:06;;;;;;;47.80;34.85;;;12.00;99.90;;;;;;5055536;28;20904;-55
2023/01/01 02:30:15;;;;;;;50.42;36.47;;;12.10;99.90;;;;;;5057065;28;20073;-55
2023/01/01 02:32:53;;;;;;;48.58;32.38;;;12.00;99.90;;;;;;5047302;28;20052;-55
2023/01/01 02:35:33;;;;;;;50.40;35.60;;;12.00;99.90;;;;;;5055041;28;20641;-54
2023/01/01 02:38:16;;;;;;;45.63;32.47;;;12.00;99.90;;;;;;5056645;28;20044;-56
2023/01/01 02:40:47;;;;;;;44.42;32.25;;;12.10;99.90;;;;;;5055733;28;20033;-56
2023/01/01 02:43:13;;;;;;;45.15;33.10;;;12.00;99.90;;;;;;5056116;28;20076;-56
2023/01/01 02:45:39;;;;;;;48.58;33.72;;;12.00;99.90;;;;;;5055782;28;20079;-55
2023/01/01 02:48:06;;;;;;;46.15;33.15;;;11.90;99.90;;;;;;5087923;28;20048;-56
2023/01/01 02:50:33;;;;;;;44.20;32.15;;;11.90;99.90;;;;;;5056307;28;20080;-56
2023/01/01 02:53:08;;;;;;;43.63;29.27;;;12.00;99.90;;;;;;5055111;28;20044;-56
2023/01/01 02:55:36;;;;;;;43.47;29.65;;;11.70;99.90;;;;;;5054478;28;20040;-55
2023/01/01 03:01:08;;;;;;;41.58;28.80;;;11.70;99.90;;;;;;5053003;28;20135;-56
2023/01/01 03:03:49;;;;;;;44.42;28.73;;;11.70;99.90;;;;;;5054786;28;20040;-56
2023/01/01 03:06:38;;;;;;;42.78;28.48;;;13.50;99.90;;;;;;5086227;28;20040;-56
2023/01/01 03:09:17;;;;;;;40.08;26.27;;;11.40;99.90;;;;;;5054581;28;20519;-56
2023/01/01 03:11:49;;;;;;;37.97;26.75;;;11.40;99.90;;;;;;5054698;28;20055;-56
2023/01/01 03:14:26;;;;;;;39.38;25.48;;;11.40;99.90;;;;;;5054610;28;20056;-56
2023/01/01 03:16:55;;;;;;;28.52;17.45;;;11.40;99.90;;;;;;5053469;28;20037;-56
2023/01/01 03:19:30;;;;;;;30.52;18.05;;;11.50;99.90;;;;;;5053763;28;20051;-56
2023/01/01 03:22:05;;;;;;;34.70;17.83;;;11.50;99.90;;;;;;5054749;28;20628;-56
2023/01/01 03:24:40;;;;;;;30.10;17.50;;;11.30;99.90;;;;;;5054672;28;20790;-56
2023/01/01 03:27:23;;;;;;;27.60;16.20;;;11.90;99.90;;;;;;5053547;28;20143;-55
2023/01/01 03:29:52;;;;;;;29.80;15.30;;;11.00;99.90;;;;;;5053994;28;20082;-56
2023/01/01 03:32:58;;;;;;;31.85;13.40;;;11.00;99.90;;;;;;5053680;28;20143;-56
2023/01/01 03:35:14;;;;;;;29.48;12.55;;;11.20;99.90;;;;;;5054550;28;20528;-56
2023/01/01 03:37:43;;;;;;;23.88;13.23;;;11.10;99.90;;;;;;5053728;28;20129;-56
2023/01/01 03:40:10;;;;;;;23.25;13.70;;;11.10;99.90;;;;;;5053398;28;20102;-56
2023/01/01 03:42:40;;;;;;;28.17;12.48;;;11.00;99.90;;;;;;5054209;28;20280;-56
2023/01/01 03:45:27;;;;;;;20.05;10.30;;;10.90;99.90;;;;;;5053435;28;20047;-56
2023/01/01 03:47:54;;;;;;;23.63;10.65;;;11.00;99.90;;;;;;5051809;28;21407;-56
2023/01/01 03:50:24;;;;;;;22.38;10.43;;;11.00;99.90;;;;;;5052845;28;20060;-56
2023/01/01 03:53:13;;;;;;;21.42;9.98;;;11.00;99.90;;;;;;5084611;28;20041;-56
2023/01/01 03:55:49;;;;;;;19.08;9.38;;;10.80;99.90;;;;;;5053789;28;20049;-57
2023/01/01 03:58:38;;;;;;;18.55;7.72;;;11.00;99.90;;;;;;5054979;28;20106;-56
2023/01/01 04:01:11;;;;;;;21.77;8.52;;;10.90;99.90;;;;;;5053594;28;20625;-56
2023/01/01 04:03:38;;;;;;;22.10;9.50;;;10.90;99.90;;;;;;5054603;28;20043;-56
2023/01/01 04:06:05;;;;;;;18.88;6.85;;;10.90;99.90;;;;;;5054057;28;20060;-56
2023/01/01 04:08:33;;;;;;;18.02;7.13;;;11.00;99.90;;;;;;5053088;28;20101;-56
2023/01/01 04:12:00;;;;;;;16.73;6.07;;;11.10;99.90;;;;;;5054426;28;20135;-56
2023/01/01 04:13:49;;;;;;;21.67;5.80;;;11.00;99.90;;;;;;5053486;28;20517;-56
2023/01/01 04:16:14;;;;;;;15.00;5.00;;;11.00;99.90;;;;;;5054497;28;20109;-57
2023/01/01 04:18:40;;;;;;;17.67;4.80;;;11.10;99.90;;;;;;5055292;28;20295;-56
2023/01/01 04:21:06;;;;;;;16.25;4.13;;;11.10;99.90;;;;;;5054193;28;20033;-56
2023/01/01 04:23:32;;;;;;;15.95;3.92;;;11.00;99.90;;;;;;5052503;28;20094;-55
2023/01/01 04:25:57;;;;;;;16.85;3.40;;;11.00;99.90;;;;;;5052245;28;20075;-56
2023/01/01 04:28:23;;;;;;;16.92;3.97;;;11.20;99.90;;;;;;5053647;28;20044;-56
2023/01/01 04:30:49;;;;;;;20.75;4.15;;;11.40;99.90;;;;;;5052337;28;20473;-56
2023/01/01 04:33:14;;;;;;;17.30;4.30;;;11.20;99.90;;;;;;5053015;28;20079;-56
2023/01/01 04:35:40;;;;;;;13.00;3.88;;;11.20;99.90;;;;;;5053006;28;20055;-56
2023/01/01 04:38:06;;;;;;;17.52;4.43;;;11.30;99.90;;;;;;5053596;28;20052;-56
2023/01/01 04:40:31;;;;;;;20.02;4.22;;;11.10;99.90;;;;;;5052425;28;20040;-56
2023/01/01 04:42:57;;;;;;;21.75;5.50;;;11.10;99.90;;;;;;5052212;28;20425;-55
2023/01/01 04:45:23;;;;;;;21.52;5.65;;;11.10;99.90;;;;;;5051553;28;20072;-56
2023/01/01 04:47:48;;;;;;;22.80;5.53;;;11.00;99.90;;;;;;5051889;28;20051;-56
2023/01/01 04:50:14;;;;;;;23.08;4.00;;;12.70;99.90;;;;;;5052901;28;20070;-56
2023/01/01 04:52:40;;;;;;;19.38;4.30;;;11.00;99.90;;;;;;5052729;28;20041;-56
2023/01/01 04:55:06;;;;;;;16.20;3.95;;;11.10;99.90;;;;;;5052382;28;20033;-56
2023/01/01 04:57:32;;;;;;;19.92;5.47;;;11.00;99.90;;;;;;5053597;28;20443;-56
2023/01/01 04:59:57;;;;;;;15.88;4.13;;;11.20;99.90;;;;;;5050370;28;20044;-57
2023/01/01 05:02:23;;;;;;;16.38;4.13;;;11.00;99.90;;;;;;5052371;28;20036;-56
2023/01/01 05:04:49;;;;;;;23.67;4.53;;;11.20;99.90;;;;;;5052301;28;20076;-56
2023/01/01 05:07:14;;;;;;;14.07;3.83;;;11.00;99.90;;;;;;5052826;28;20630;-55
2023/01/01 05:09:40;;;;;;;16.52;3.95;;;11.20;99.90;;;;;;5052121;28;20040;-56
2023/01/01 05:12:06;;;;;;;13.10;3.42;;;11.00;99.90;;;;;;5051861;28;20036;-56
2023/01/01 05:14:32;;;;;;;14.52;3.85;;;11.20;99.90;;;;;;5052092;28;20091;-56
2023/01/01 05:16:58;;;;;;;15.02;4.15;;;11.20;99.90;;;;;;5052868;28;20060;-56
2023/01/01 05:19:24;;;;;;;13.40;3.25;;;11.10;99.90;;;;;;5051523;28;20036;-56
2023/01/01 05:21:49;;;;;;;14.20;2.58;;;11.20;99.90;;;;;;5053605;28;20054;-55
2023/01/01 05:24:15;;;;;;;12.80;3.10;;;11.40;99.90;;;;;;5053346;28;20505;-57
2023/01/01 05:26:43;;;;;;;13.90;3.45;;;11.20;99.90;;;;;;5054083;28;20041;-56
2023/01/01 05:29:09;;;;;;;14.20;3.10;;;11.30;99.90;;;;;;5054837;28;20094;-56
2023/01/01 05:31:35;;;;;;;18.60;2.88;;;11.20;99.90;;;;;;5052043;28;20040;-56
2023/01/01 05:34:02;;;;;;;11.10;3.03;;;11.50;99.90;;;;;;5053868;28;20467;-56
2023/01/01 05:36:34;;;;;;;11.02;2.25;;;11.30;99.90;;;;;;5057274;28;20074;-56
2023/01/01 05:39:00;;;;;;;;;;;11.00;99.90;;;;;;5058187;28;20440;-56
2023/01/01 05:41:26;;;;;;;11.40;2.00;;;11.10;99.90;;;;;;5057721;28;19957;-56
2023/01/01 05:43:52;;;;;;;12.98;2.45;;;11.30;99.90;;;;;;5057550;28;20134;-56
2023/01/01 05:46:20;;;;;;;12.90;2.58;;;11.20;99.90;;;;;;5055491;28;20040;-56
2023/01/01 05:48:46;;;;;;;8.30;2.42;;;11.40;99.90;;;;;;5056938;28;20462;-56
2023/01/01 05:51:17;;;;;;;10.55;2.28;;;11.40;99.90;;;;;;5055972;28;20055;-56
2023/01/01 05:53:44;;;;;;;12.52;2.50;;;11.30;99.90;;;;;;5055170;28;20068;-56
2023/01/01 05:56:11;;;;;;;14.23;2.53;;;9.40;99.90;;;;;;5055215;28;20074;-56
2023/01/01 05:58:37;;;;;;;10.07;2.70;;;11.30;99.90;;;;;;5056665;28;20063;-56
2023/01/01 06:01:14;;;;;;;9.23;2.75;;;11.10;99.90;;;;;;5055380;28;20048;-56
2023/01/01 06:03:41;;;;;;;10.93;2.22;;;11.20;99.90;;;;;;5055709;28;20568;-56
2023/01/01 06:06:09;;;;;;;9.18;1.83;;;11.10;99.90;;;;;;5056618;28;20101;-55
2023/01/01 06:08:35;;;;;;;16.42;2.92;;;11.30;99.90;;;;;;5055964;28;20732;-56
2023/01/01 06:11:03;;;;;;;11.57;1.83;;;11.20;99.90;;;;;;5053834;28;20049;-55
2023/01/01 06:13:29;;;;;;;10.65;2.00;;;11.20;99.90;;;;;;5055026;28;20044;-55
2023/01/01 06:15:56;;;;;;;8.02;1.70;;;11.00;99.90;;;;;;5054607;28;20064;-56
2023/01/01 06:18:23;;;;;;;8.85;1.92;;;10.90;99.90;;;;;;5055340;28;20872;-56
2023/01/01 06:20:49;;;;;;;7.20;1.88;;;11.00;99.90;;;;;;5056016;28;20075;-56
2023/01/01 06:23:15;;;;;;;10.18;2.00;;;11.10;99.90;;;;;;5054017;28;20127;-55
2023/01/01 06:25:40;;;;;;;10.07;1.95;;;10.90;99.90;;;;;;5054751;28;20040;-55
2023/01/01 06:28:06;;;;;;;10.57;2.13;;;11.00;99.90;;;;;;5055511;28;21148;-55
2023/01/01 06:30:33;;;;;;;12.23;1.90;;;11.10;99.90;;;;;;5055177;28;20040;-56
2023/01/01 06:32:59;;;;;;;12.63;2.85;;;11.00;99.90;;;;;;5054005;28;20076;-56
2023/01/01 06:35:26;;;;;;;10.00;2.25;;;11.10;99.90;;;;;;5054393;28;20048;-56
2023/01/01 06:37:52;;;;;;;12.82;2.03;;;11.10;99.90;;;;;;5053138;28;20512;-56
2023/01/01 06:40:18;;;;;;;12.23;2.67;;;10.90;99.90;;;;;;5054843;28;20093;-55
2023/01/01 06:42:43;;;;;;;12.25;2.17;;;10.90;99.90;;;;;;5056578;28;20339;-56
2023/01/01 06:45:10;;;;;;;11.70;1.95;;;11.00;99.90;;;;;;5055642;28;20123;-54
2023/01/01 06:47:36;;;;;;;14.80;2.60;;;10.90;99.90;;;;;;5055960;28;20375;-56
2023/01/01 06:50:03;;;;;;;13.95;2.20;;;10.60;99.90;;;;;;5054640;28;20045;-56
2023/01/01 06:52:28;;;;;;;15.07;1.98;;;11.00;99.90;;;;;;5056446;28;20413;-56
2023/01/01 06:54:54;;;;;;;12.38;2.17;;;10.80;99.90;;;;;;5057065;28;20048;-55
2023/01/01 06:57:20;;;;;;;13.98;2.33;;;10.70;99.90;;;;;;5055631;28;20060;-55
2023/01/01 06:59:46;;;;;;;13.30;2.17;;;10.90;99.90;;;;;;5055669;28;20037;-56
2023/01/01 07:02:12;;;;;;;9.48;1.98;;;10.90;99.90;;;;;;5056245;28;20080;-57
2023/01/01 07:04:38;;;;;;;12.77;2.15;;;10.80;99.90;;;;;;5056951;28;20505;-55
2023/01/01 07:07:04;;;;;;;10.95;1.92;;;10.90;99.90;;;;;;5054554;28;20037;-56
2023/01/01 07:09:30;;;;;;;16.52;2.60;;;10.70;99.90;;;;;;5054821;28;20131;-55
2023/01/01 07:11:56;;;;;;;15.10;3.15;;;10.70;99.90;;;;;;5053975;28;20051;-57
2023/01/01 07:14:21;;;;;;;13.82;2.65;;;10.60;99.90;;;;;;5055022;28;20114;-55
2023/01/01 07:16:47;;;;;;;14.82;3.20;;;10.80;99.90;;;;;;5054209;28;20355;-56
2023/01/01 07:19:13;;;;;;;17.60;2.35;;;10.70;99.90;;;;;;5053982;28;20040;-55
2023/01/01 07:21:42;;;;;;;20.33;3.30;;;10.60;99.90;;;;;;5054733;28;20586;-55
2023/01/01 07:24:10;;;;;;;16.02;2.58;;;10.50;99.90;;;;;;5054336;28;20052;-56
2023/01/01 07:26:36;;;;;;;14.98;3.10;;;10.80;99.90;;;;;;5054552;28;20056;-56
2023/01/01 07:29:02;;;;;;;15.18;3.38;;;10.70;99.90;;;;;;5053423;28;20095;-55
2023/01/01 07:31:28;;;;;;;22.55;4.57;;;10.60;99.90;;;;;;5052166;28;20036;-56
2023/01/01 07:33:53;;;;;;;23.52;3.28;;;10.60;99.90;;;;;;5054305;28;20047;-56
2023/01/01 07:36:19;;;;;;;19.35;2.83;;;10.40;99.90;;;;;;5054988;28;20291;-56
2023/01/01 07:38:45;;;;;;;24.40;3.40;;;10.60;99.90;;;;;;5054503;28;20056;-54
2023/01/01 07:41:10;;;;;;;22.85;4.18;;;10.50;99.90;;;;;;5053515;28;20093;-55
2023/01/01 07:43:36;;;;;;;23.08;3.35;;;10.40;99.90;;;;;;5054154;28;20036;-55
2023/01/01 07:46:02;;;;;;;21.08;3.88;;;10.40;99.90;;;;;;5053866;28;20119;-55
2023/01/01 07:48:29;;;;;;;21.73;4.07;;;10.40;99.90;;;;;;5053625;28;20070;-55
2023/01/01 07:50:55;;;;;;;23.30;3.38;;;10.40;99.90;;;;;;5053429;28;20401;-55
2023/01/01 07:53:20;;;;;;;23.27;4.95;;;10.40;99.90;;;;;;5053795;28;20036;-54
2023/01/01 07:55:47;;;;;;;16.73;3.35;;;10.50;99.90;;;;;;5053643;28;20056;-55
2023/01/01 07:58:12;;;;;;;19.88;3.55;;;10.50;99.90;;;;;;5052806;28;20397;-55
2023/01/01 08:00:38;;;;;;;21.88;3.70;;;10.60;99.90;;;;;;5052812;28;20041;-55
2023/01/01 08:03:05;;;;;;;19.75;3.58;;;10.60;99.90;;;;;;5053927;28;20136;-55
2023/01/01 08:05:32;;;;;;;17.30;3.35;;;10.40;99.90;;;;;;5054139;28;20056;-54
2023/01/01 08:07:58;;;;;;;19.88;3.42;;;10.50;99.90;;;;;;5054214;28;20106;-55
2023/01/01 08:10:24;;;;;;;21.33;4.00;;;10.40;99.90;;;;;;5054645;28;20036;-53
2023/01/01 08:12:50;;;;;;;25.75;4.22;;;10.40;99.90;;;;;;5053735;28;20062;-56
2023/01/01 08:15:16;;;;;;;23.30;3.47;;;10.40;99.90;;;;;;5054130;28;20502;-54
2023/01/01 08:17:41;;;;;;;28.67;3.80;;;10.30;99.90;;;;;;5054871;28;20071;-54
2023/01/01 08:20:08;;;;;;;20.00;3.80;;;10.40;99.90;;;;;;5054749;28;20045;-53
2023/01/01 08:22:34;;;;;;;26.23;3.85;;;10.40;99.90;;;;;;5055410;28;20020;-55
2023/01/01 08:24:59;;;;;;;16.92;2.70;;;10.40;99.90;;;;;;5053559;28;20044;-58
2023/01/01 08:27:25;;;;;;;22.50;3.55;;;10.40;99.90;;;;;;5053827;28;20035;-53
2023/01/01 08:29:51;;;;;;;32.40;5.18;;;10.50;99.90;;;;;;5053644;28;20036;-52
2023/01/01 08:32:16;;;;;;;26.85;3.50;;;10.30;99.90;;;;;;5052215;28;20216;-55
2023/01/01 08:34:42;;;;;;;23.38;3.97;;;10.30;99.90;;;;;;5052571;28;20082;-54
2023/01/01 08:37:12;;;;;;;22.67;3.80;;;10.40;99.90;;;;;;5052778;28;20139;-54
2023/01/01 08:39:38;;;;;;;29.90;4.97;;;10.40;99.90;;;;;;5052716;28;20462;-51
2023/01/01 08:42:04;;;;;;;25.85;3.47;;;10.30;99.90;;;;;;5052099;28;20044;-54
2023/01/01 08:44:30;;;;;;;23.13;4.55;;;10.40;99.90;;;;;;5050621;28;20896;-54
2023/01/01 08:46:55;;;;;;;26.30;4.88;;;10.20;99.90;;;;;;5051441;28;20561;-55
2023/01/01 08:49:21;;;;;;;19.52;3.22;;;10.40;99.90;;;;;;5052620;28;20079;-55
2023/01/01 08:51:47;;;;;;;22.85;3.78;;;11.10;99.90;;;;;;5052468;28;20102;-55
2023/01/01 08:54:12;;;;;;;19.65;3.30;;;10.30;99.90;;;;;;5051641;28;20430;-53
2023/01/01 08:56:38;;;;;;;22.33;3.92;;;10.50;99.90;;;;;;5051276;28;20574;-55
2023/01/01 08:59:04;;;;;;;21.40;3.50;;;10.30;99.90;;;;;;5053341;28;20046;-54
2023/01/01 09:01:30;;;;;;;26.65;3.78;;;10.40;99.90;;;;;;5051587;28;21342;-55
2023/01/01 09:03:55;;;;;;;29.40;3.83;;;10.50;99.90;;;;;;5051770;28;20042;-54
2023/01/01 09:06:21;;;;;;;24.00;4.10;;;10.30;99.90;;;;;;5052175;28;20044;-55
2023/01/01 09:08:47;;;;;;;21.85;3.20;;;10.30;99.90;;;;;;5051264;28;20484;-55
2023/01/01 09:11:24;;;;;;;33.83;5.15;;;10.30;99.90;;;;;;5052162;28;20168;-55
2023/01/01 09:13:51;;;;;;;27.35;4.00;;;10.50;99.90;;;;;;5051702;28;20550;-54
2023/01/01 09:16:16;;;;;;;22.50;4.00;;;10.40;99.90;;;;;;5050700;28;20123;-56
2023/01/01 09:18:42;;;;;;;24.08;3.38;;;10.40;99.90;;;;;;5051933;28;20090;-54
2023/01/01 09:21:08;;;;;;;25.02;3.40;;;10.50;99.90;;;;;;5051916;28;20036;-58
2023/01/01 09:23:34;;;;;;;22.38;3.60;;;10.50;99.90;;;;;;5052782;28;20471;-53
2023/01/01 09:26:07;;;;;;;36.75;4.35;;;10.50;99.90;;;;;;5051068;28;20056;-54
2023/01/01 09:28:34;;;;;;;27.60;3.72;;;10.30;99.90;;;;;;5052510;28;20401;-55
2023/01/01 09:31:00;;;;;;;21.25;4.00;;;10.60;99.90;;;;;;5050602;28;20124;-55
2023/01/01 09:33:27;;;;;;;27.83;3.88;;;10.40;99.90;;;;;;5053670;28;20417;-55
2023/01/01 09:35:52;;;;;;;17.52;3.33;;;10.40;99.90;;;;;;5051798;28;20044;-54
2023/01/01 09:38:18;;;;;;;22.90;3.67;;;10.60;99.90;;;;;;5052723;28;20051;-55
2023/01/01 09:41:13;;;;;;;21.90;3.75;;;10.60;99.90;;;;;;5052789;28;20037;-54
2023/01/01 09:44:00;;;;;;;19.95;3.95;;;10.60;99.90;;;;;;5052586;28;20032;-55
2023/01/01 09:46:26;;;;;;;24.17;3.53;;;10.60;99.90;;;;;;5051710;28;20037;-55
2023/01/01 09:49:00;;;;;;;22.38;4.53;;;10.60;99.90;;;;;;5051963;28;20672;-54
2023/01/01 09:51:30;;;;;;;30.00;5.38;;;10.60;99.90;;;;;;5052754;28;20182;-54
2023/01/01 09:54:32;;;;;;;22.40;4.00;;;10.90;99.90;;;;;;5052246;28;20311;-55
2023/01/01 09:57:00;;;;;;;25.17;4.18;;;10.60;99.90;;;;;;5051256;28;20102;-54
2023/01/01 09:59:26;;;;;;;21.40;3.47;;;10.90;99.90;;;;;;5053940;28;20040;-56
2023/01/01 10:01:58;;;;;;;22.48;3.60;;;10.90;99.90;;;;;;5051421;28;20481;-55
2023/01/01 10:04:52;;;;;;;29.88;5.05;;;10.90;99.90;;;;;;5052315;28;20517;-54
2023/01/01 10:07:52;;;;;;;25.42;4.57;;;10.90;99.90;;;;;;5052290;28;20044;-55
2023/01/01 10:10:43;;;;;;;26.15;4.25;;;11.00;99.90;;;;;;5050864;28;20040;-54
2023/01/01 10:13:27;;;;;;;26.25;4.00;;;11.40;99.90;;;;;;5051211;28;20590;-56
2023/01/01 10:16:20;;;;;;;31.80;4.88;;;11.90;99.90;;;;;;5051391;28;20163;-55
2023/01/01 10:18:50;;;;;;;23.52;3.42;;;12.20;99.90;;;;;;5052693;28;20036;-55
2023/01/01 10:21:30;;;;;;;22.58;3.53;;;12.10;99.90;;;;;;5054989;28;20527;-55
2023/01/01 10:24:04;;;;;;;24.13;4.47;;;12.30;99.90;;;;;;5055699;28;20052;-55
2023/01/01 10:26:33;;;;;;;21.95;4.03;;;11.90;99.90;;;;;;5055382;28;20059;-53
2023/01/01 10:29:08;;;;;;;26.23;4.47;;;12.00;99.90;;;;;;5055092;28;20041;-55
2023/01/01 10:31:37;;;;;;;20.77;3.47;;;11.70;99.90;;;;;;5055244;28;20760;-55
2023/01/01 10:34:12;;;;;;;24.20;4.68;;;11.60;99.90;;;;;;5055357;28;20052;-56
2023/01/01 10:36:38;;;;;;;20.80;3.08;;;11.40;99.90;;;;;;5055952;28;20032;-57
2023/01/01 10:39:03;;;;;;;26.73;4.20;;;11.10;99.90;;;;;;5054129;28;20213;-55
2023/01/01 10:41:30;;;;;;;20.92;3.22;;;11.30;99.90;;;;;;5055239;28;20504;-54
2023/01/01 10:43:56;;;;;;;23.23;3.20;;;11.20;99.90;;;;;;5055339;28;20099;-54
2023/01/01 10:46:25;;;;;;;19.38;3.75;;;11.10;99.90;;;;;;5054085;28;20107;-55
2023/01/01 10:49:12;;;;;;;20.42;3.30;;;11.10;99.90;;;;;;5086489;28;20045;-55
2023/01/01 10:51:45;;;;;;;21.95;3.33;;;10.90;99.90;;;;;;5055372;28;20127;-55
2023/01/01 10:54:39;;;;;;;19.25;3.35;;;11.10;99.90;;;;;;5054954;28;20456;-55
2023/01/01 10:57:24;;;;;;;20.60;3.70;;;11.10;99.90;;;;;;5054182;28;20517;-55
2023/01/01 10:59:49;;;;;;;25.13;3.88;;;10.90;99.90;;;;;;5054572;28;20043;-55
2023/01/01 11:02:21;;;;;;;23.10;3.38;;;10.90;99.90;;;;;;5054325;28;20032;-55
2023/01/01 11:04:48;;;;;;;17.85;2.88;;;10.90;99.90;;;;;;5056443;28;20090;-55
2023/01/01 11:07:33;;;;;;;21.13;2.90;;;11.00;99.90;;;;;;5055948;28;20044;-55
2023/01/01 11:10:05;;;;;;;19.98;3.38;;;11.20;99.90;;;;;;5055874;28;20040;-55
2023/01/01 11:12:37;;;;;;;22.87;2.90;;;10.90;99.90;;;;;;5056935;28;20121;-55
2023/01/01 11:15:04;;;;;;;17.75;3.15;;;11.00;99.90;;;;;;5055917;28;20655;-55
2023/01/01 11:17:35;;;;;;;15.10;2.58;;;11.10;99.90;;;;;;5054906;28;20045;-55
2023/01/01 11:20:03;;;;;;;15.80;2.63;;;11.10;99.90;;;;;;5056229;28;20043;-54
2023/01/01 11:22:41;;;;;;;12.50;2.38;;;11.10;99.90;;;;;;5056840;28;20072;-55
2023/01/01 11:25:21;;;;;;;15.63;3.75;;;11.20;99.90;;;;;;5055543;28;20101;-55
2023/01/01 11:27:48;;;;;;;21.80;3.47;;;11.20;99.90;;;;;;5054233;28;20041;-54
2023/01/01 11:30:39;;;;;;;18.30;2.72;;;11.30;99.90;;;;;;5053850;28;20439;-53
2023/01/01 11:33:05;;;;;;;19.13;2.42;;;11.10;99.90;;;;;;5051026;28;20095;-55
2023/01/01 11:35:36;;;;;;;17.52;2.53;;;11.20;99.90;;;;;;5053786;28;20564;-54
2023/01/01 11:38:02;;;;;;;18.57;2.97;;;11.20;99.90;;;;;;5054009;28;20239;-53
2023/01/01 11:40:35;;;;;;;21.15;3.60;;;11.10;99.90;;;;;;5054135;28;20291;-55
2023/01/01 11:43:03;;;;;;;22.15;3.10;;;11.20;99.90;;;;;;5054132;28;20308;-55
2023/01/01 11:45:39;;;;;;;24.10;4.55;;;11.00;99.90;;;;;;5053797;28;20093;-55
2023/01/01 11:48:15;;;;;;;27.33;3.78;;;10.90;99.90;;;;;;5054017;28;20661;-55
2023/01/01 11:50:51;;;;;;;16.17;3.58;;;10.90;99.90;;;;;;5054520;28;20636;-54
2023/01/01 11:53:25;;;;;;;16.42;2.85;;;10.90;99.90;;;;;;5054413;28;20087;-55
2023/01/01 11:56:21;;;;;;;15.68;2.75;;;10.90;99.90;;;;;;5053035;28;20047;-54
2023/01/01 11:59:13;;;;;;;16.33;3.13;;;11.20;99.90;;;;;;5052703;28;20071;-54
2023/01/01 12:01:51;;;;;;;;;;;11.10;99.90;;;;;;5053329;28;20048;-55
2023/01/01 12:04:23;;;;;;;20.02;3.17;;;11.00;99.90;;;;;;5051806;28;20018;-54
2023/01/01 12:06:52;;;;;;;21.65;3.33;;;11.20;99.90;;;;;;5052384;28;20815;-55
2023/01/01 12:09:47;;;;;;;18.23;3.45;;;11.20;99.90;;;;;;5052013;28;20041;-54
2023/01/01 12:12:27;;;;;;;16.83;2.25;;;11.30;99.90;;;;;;5051223;28;20055;-55
2023/01/01 12:15:20;;;;;;;13.55;2.33;;;11.60;99.90;;;;;;5052779;28;20049;-54
2023/01/01 12:17:57;;;;;;;18.63;3.45;;;11.50;99.90;;;;;;5054069;28;20048;-54
2023/01/01 12:20:37;;;;;;;18.67;2.70;;;11.40;99.90;;;;;;5054360;28;20044;-55
2023/01/01 12:23:02;;;;;;;21.75;2.90;;;11.40;99.90;;;;;;5055396;28;20504;-55
2023/01/01 12:25:37;;;;;;;19.33;3.00;;;11.40;99.90;;;;;;5053528;28;20676;-55
2023/01/01 12:28:08;;;;;;;17.85;2.70;;;11.40;99.90;;;;;;5054319;28;20485;-55
2023/01/01 12:30:41;;;;;;;16.40;2.47;;;11.30;99.90;;;;;;5054403;28;20045;-54
2023/01/01 12:33:44;;;;;;;15.52;2.70;;;11.40;99.90;;;;;;5054087;28;20468;-55
2023/01/01 12:36:13;;;;;;;20.45;3.00;;;11.60;99.90;;;;;;5054167;28;20432;-54
2023/01/01 12:38:50;;;;;;;21.77;2.92;;;11.50;99.90;;;;;;5054165;28;20501;-55
2023/01/01 12:41:34;;;;;;;18.33;3.10;;;11.40;99.90;;;;;;5053076;28;20074;-54
2023/01/01 12:44:17;;;;;;;15.82;3.00;;;11.40;99.90;;;;;;5053318;28;20044;-55
2023/01/01 12:47:07;;;;;;;22.35;3.17;;;11.40;99.90;;;;;;5052532;28;20386;-54
2023/01/01 12:49:58;;;;;;;21.98;3.33;;;11.40;99.90;;;;;;5052069;28;20044;-55
2023/01/01 12:52:52;;;;;;;20.98;3.08;;;11.20;99.90;;;;;;5053142;28;20044;-56
2023/01/01 12:55:40;;;;;;;22.08;3.65;;;11.60;99.90;;;;;;5051653;28;20047;-54